Time;durP1;ratioP1;P1;durP2;ratioP2;P2;SDS_P1;SDS_P2;PMS_P1;PMS_P2;Temp;Humidity;BMP_temperature;BMP_pressure;BME280_temperature;BME280_humidity;BME280_pressure;Samples;Min_cycle;Max_cycle;Signal;HPM_P1;HPM_P2
2023/10/14 00:01:04;;;;;;;10.40;5.38;;;;;;;12.85;75.75;95471.25;5133503;27;20227;-66
2023/10/14 00:03:33;;;;;;;16.40;4.65;;;;;;;12.82;75.95;95468.81;5131520;27;20216;-65
2023/10/14 00:06:05;;;;;;;7.93;4.45;;;;;;;12.77;75.99;95468.13;5134009;27;20637;-66
2023/10/14 00:08:33;;;;;;;8.55;5.47;;;;;;;12.68;76.80;95459.97;5141580;27;20306;-65
2023/10/14 00:11:07;;;;;;;5.78;4.55;;;;;;;12.67;77.12;95463.41;5145310;27;20657;-65
2023/10/14 00:13:40;;;;;;;7.55;5.07;;;;;;;12.77;76.67;95459.66;5139550;27;20237;-62
2023/10/14 00:16:13;;;;;;;8.52;4.97;;;;;;;12.78;76.43;95459.59;5131652;27;20192;-65
2023/10/14 00:18:44;;;;;;;7.35;4.95;;;;;;;12.59;77.05;95456.88;5133180;27;20196;-66
2023/10/14 00:21:14;;;;;;;9.32;4.55;;;;;;;12.50;77.81;95461.44;5132582;27;20223;-64
2023/10/14 00:23:41;;;;;;;6.40;4.55;;;;;;;12.39;78.07;95456.72;5133197;27;20203;-65
2023/10/14 00:26:14;;;;;;;8.90;5.05;;;;;;;12.44;77.53;95461.66;5138805;27;20275;-63
2023/10/14 00:28:43;;;;;;;7.68;4.90;;;;;;;12.58;76.97;95455.22;5138450;27;20193;-66
2023/10/14 00:31:11;;;;;;;10.27;4.70;;;;;;;12.56;76.90;95458.69;5131689;27;20324;-65
2023/10/14 00:33:38;;;;;;;7.50;4.88;;;;;;;12.54;77.12;95447.72;5132431;27;20252;-62
2023/10/14 00:36:10;;;;;;;9.30;5.20;;;;;;;12.46;77.51;95444.59;5133325;27;20188;-63
2023/10/14 00:38:38;;;;;;;9.77;5.25;;;;;;;12.55;77.30;95449.38;5129894;27;20697;-65
2023/10/14 00:41:08;;;;;;;13.77;5.22;;;;;;;12.45;77.87;95442.94;5132280;27;20196;-64
2023/10/14 00:43:36;;;;;;;7.72;4.53;;;;;;;12.51;77.80;95447.81;5131454;27;20285;-63
2023/10/14 00:46:11;;;;;;;5.10;4.38;;;;;;;12.45;77.69;95446.31;5131814;27;20724;-66
2023/10/14 00:48:40;;;;;;;9.90;5.07;;;;;;;12.54;77.11;95445.16;5132449;27;20290;-64
2023/10/14 00:51:10;;;;;;;13.27;5.03;;;;;;;12.51;77.53;95443.56;5133140;27;20204;-66
2023/10/14 00:53:39;;;;;;;8.27;4.25;;;;;;;12.50;77.63;95435.97;5130901;27;20671;-65
2023/10/14 00:56:10;;;;;;;6.38;4.53;;;;;;;12.43;78.00;95439.59;5130526;27;20189;-63
2023/10/14 00:58:44;;;;;;;6.70;4.75;;;;;;;12.28;78.47;95438.44;5131556;27;20219;-65
2023/10/14 01:01:11;;;;;;;4.72;4.28;;;;;;;12.16;78.68;95434.56;5133709;27;20281;-64
2023/10/14 01:03:37;;;;;;;7.07;4.35;;;;;;;12.03;79.15;95430.78;5132347;27;20231;-64
2023/10/14 01:06:20;;;;;;;7.90;4.93;;;;;;;12.01;79.36;95432.53;5130924;27;20223;-64
2023/10/14 01:08:50;;;;;;;5.97;3.83;;;;;;;12.04;79.38;95429.91;5133864;27;20260;-65
2023/10/14 01:11:17;;;;;;;10.80;4.45;;;;;;;12.03;79.10;95425.69;5134710;27;20196;-63
2023/10/14 01:13:45;;;;;;;7.10;4.55;;;;;;;12.07;78.92;95422.16;5130823;27;20567;-65
2023/10/14 01:16:13;;;;;;;8.32;4.45;;;;;;;12.02;79.02;95408.72;5130502;27;20283;-65
2023/10/14 01:18:41;;;;;;;8.23;4.57;;;;;;;11.92;79.35;95420.09;5129515;27;20192;-65
2023/10/14 01:21:08;;;;;;;6.13;4.38;;;;;;;11.92;79.99;95420.09;5132207;27;20200;-60
2023/10/14 01:23:37;;;;;;;8.13;4.30;;;;;;;12.00;79.18;95418.13;5132181;27;20199;-64
2023/10/14 01:26:05;;;;;;;7.55;4.43;;;;;;;12.00;79.19;95412.22;5135538;27;20581;-63
2023/10/14 01:28:32;;;;;;;6.72;4.18;;;;;;;11.95;79.01;72382.63;5130824;27;20249;-65
2023/10/14 01:31:31;;;;;;;7.15;4.85;;;;;;;11.95;79.01;95411.53;5128606;27;20726;-64
2023/10/14 01:33:57;;;;;;;4.88;4.32;;;;;;;11.93;79.99;95404.75;5127847;27;20204;-65
2023/10/14 01:36:27;;;;;;;6.78;5.47;;;;;;;11.84;80.20;95409.34;5130199;27;20770;-63
2023/10/14 01:38:59;;;;;;;5.90;4.50;;;;;;;11.85;79.56;95411.03;5130686;27;20882;-63
2023/10/14 01:41:29;;;;;;;12.82;4.85;;;;;;;11.84;79.59;95404.25;5127588;27;20196;-62
2023/10/14 01:43:57;;;;;;;6.93;4.50;;;;;;;11.83;79.44;95402.59;5129100;27;20650;-64
2023/10/14 01:46:27;;;;;;;5.60;4.03;;;;;;;11.83;79.80;95407.69;5127016;27;20292;-64
2023/10/14 01:48:54;;;;;;;9.20;4.32;;;;;;;11.96;78.68;95408.94;5126759;27;20308;-63
2023/10/14 01:51:25;;;;;;;7.47;4.30;;;;;;;12.00;78.89;95407.13;5132355;27;20292;-65
2023/10/14 01:53:51;;;;;;;7.80;5.57;;;;;;;12.13;78.15;95405.81;5125755;27;20200;-64
2023/10/14 01:56:20;;;;;;;17.02;6.38;;;;;;;12.14;78.53;95403.22;5128674;27;20203;-65
2023/10/14 01:58:48;;;;;;;5.32;4.75;;;;;;;12.13;78.11;95400.72;5129597;27;20198;-62
2023/10/14 02:01:15;;;;;;;12.00;5.47;;;;;;;12.13;78.85;95400.72;5129638;27;20207;-63
2023/10/14 02:03:46;;;;;;;10.27;5.35;;;;;;;12.09;78.43;95406.81;5127048;27;20231;-65
2023/10/14 02:06:16;;;;;;;12.73;6.18;;;;;;;12.06;78.50;95405.22;5129544;27;20227;-65
2023/10/14 02:08:43;;;;;;;11.18;5.78;;;;;;;11.89;79.34;95402.38;5131145;27;20231;-64
2023/10/14 02:11:10;;;;;;;9.73;5.32;;;;;;;11.81;79.93;95404.34;5129651;27;20208;-63
2023/10/14 02:13:38;;;;;;;10.30;6.13;;;;;;;11.97;79.93;95402.97;5126949;27;20319;-64
2023/10/14 02:16:08;;;;;;;8.30;5.40;;;;;;;12.04;79.69;95396.78;5130434;27;20188;-60
2023/10/14 02:18:36;;;;;;;7.60;5.05;;;;;;;12.13;78.73;95399.00;5128502;27;20692;-64
2023/10/14 02:21:06;;;;;;;11.65;5.65;;;;;;;12.17;78.08;95398.00;5129586;27;20273;-62
2023/10/14 02:23:43;;;;;;;8.02;5.35;;;;;;;12.17;78.36;95398.00;5126346;27;20196;-63
2023/10/14 02:26:12;;;;;;;5.32;4.82;;;;;;;12.32;77.84;95395.84;5130394;27;20231;-65
2023/10/14 02:28:41;;;;;;;6.50;4.72;;;;;;;12.49;77.08;95398.59;5131571;27;20283;-64
2023/10/14 02:31:17;;;;;;;8.57;4.60;;;;;;;12.56;76.38;95389.88;5131770;27;20616;-64
2023/10/14 02:33:45;;;;;;;10.60;5.05;;;;;;;12.62;76.13;95393.91;5129662;27;20231;-63
2023/10/14 02:36:15;;;;;;;5.85;4.88;;;;;;;12.44;76.96;95387.75;5130858;27;20192;-65
2023/10/14 02:38:43;;;;;;;6.40;5.18;;;;;;;12.42;76.63;95386.97;5131252;27;20211;-64
2023/10/14 02:41:10;;;;;;;6.63;4.88;;;;;;;12.43;76.64;95388.63;5127717;27;20212;-64
2023/10/14 02:43:38;;;;;;;5.10;4.65;;;;;;;12.23;77.25;95382.50;5130054;27;20209;-65
2023/10/14 02:46:10;;;;;;;8.80;6.05;;;;;;;12.07;78.38;95391.59;5131688;27;20268;-65
2023/10/14 02:48:52;;;;;;;11.07;6.20;;;;;;;11.90;79.59;95391.31;5132627;27;20227;-66
2023/10/14 02:51:29;;;;;;;9.70;4.90;;;;;;;11.87;78.82;95388.88;5129827;27;20253;-61
2023/10/14 02:54:04;;;;;;;5.43;4.88;;;;;;;11.84;79.28;95389.81;5130721;27;20658;-65
2023/10/14 02:56:45;;;;;;;15.05;5.70;;;;;;;11.76;80.07;95401.09;5129417;27;20203;-63
2023/10/14 02:59:16;;;;;;;9.15;5.85;;;;;;;11.62;79.74;95380.34;5130393;27;20192;-65
2023/10/14 03:01:50;;;;;;;7.88;5.75;;;;;;;11.69;80.07;95385.16;5134592;27;20268;-64
2023/10/14 03:04:19;;;;;;;9.70;5.93;;;;;;;11.63;79.96;95387.91;5134504;27;20203;-63
2023/10/14 03:06:53;;;;;;;11.90;5.20;;;;;;;11.47;81.34;95391.84;5136715;27;20215;-64
2023/10/14 03:09:32;;;;;;;6.88;5.57;;;;;;;11.35;81.89;95388.00;5123909;27;20196;-62
2023/10/14 03:11:59;;;;;;;15.77;6.30;;;;;;;11.19;82.48;95384.22;5131869;27;20272;-65
2023/10/14 03:14:26;;;;;;;16.83;5.38;;;;;;;11.16;83.11;95385.16;5130853;27;20707;-65
2023/10/14 03:16:54;;;;;;;10.63;6.60;;;;;;;11.23;82.74;95381.56;5135316;27;20593;-64
2023/10/14 03:19:24;;;;;;;15.27;5.68;;;;;;;11.18;82.24;95377.47;5133864;27;20334;-65
2023/10/14 03:21:58;;;;;;;12.00;5.55;;;;;;;11.20;82.20;95380.81;5132179;27;20614;-64
2023/10/14 03:24:27;;;;;;;12.40;6.15;;;;;;;11.14;82.68;95386.06;5134083;27;20204;-64
2023/10/14 03:27:00;;;;;;;13.32;5.88;;;;;;;11.20;82.93;95386.72;5132563;27;20256;-65
2023/10/14 03:29:28;;;;;;;8.95;5.82;;;;;;;11.13;83.59;95385.28;5134486;27;20645;-63
2023/10/14 03:31:56;;;;;;;6.93;5.72;;;;;;;11.18;82.41;95387.66;5133072;27;20219;-64
2023/10/14 03:34:29;;;;;;;8.73;5.75;;;;;;;11.18;83.08;95382.56;5134443;27;20220;-62
2023/10/14 03:37:00;;;;;;;10.88;5.75;;;;;;;11.04;83.24;95388.09;5136185;27;20199;-63
2023/10/14 03:39:38;;;;;;;10.52;5.75;;;;;;;10.95;83.35;95384.97;5128767;27;20296;-63
2023/10/14 03:42:10;;;;;;;15.93;6.15;;;;;;;10.87;83.83;95383.50;5136638;27;20246;-65
2023/10/14 03:44:37;;;;;;;11.25;5.60;;;;;;;10.87;83.14;95387.78;5134645;27;20236;-63
2023/10/14 03:47:14;;;;;;;12.00;5.53;;;;;;;10.93;83.52;95386.72;5133660;27;20764;-63
2023/10/14 03:49:42;;;;;;;16.80;6.35;;;;;;;10.89;84.06;95376.66;5131818;27;20196;-63
2023/10/14 03:52:12;;;;;;;8.77;5.32;;;;;;;10.82;82.85;95370.09;5132549;27;20196;-60
2023/10/14 03:54:42;;;;;;;13.90;5.93;;;;;;;10.93;82.61;95382.47;5138417;27;20587;-63
2023/10/14 03:57:14;;;;;;;11.38;5.57;;;;;;;10.86;83.80;95374.22;5133352;27;20219;-62
2023/10/14 03:59:42;;;;;;;11.50;5.80;;;;;;;10.94;82.31;95373.13;5133833;27;20228;-65
2023/10/14 04:02:15;;;;;;;8.50;5.20;;;;;;;11.04;82.04;95364.38;5135029;27;20934;-64
2023/10/14 04:04:42;;;;;;;9.38;6.05;;;;;;;10.98;82.60;95370.47;5134334;27;20641;-65
2023/10/14 04:07:16;;;;;;;9.63;5.13;;;;;;;10.93;83.49;95374.00;5134466;27;20260;-63
2023/10/14 04:09:50;;;;;;;9.00;5.35;;;;;;;10.84;83.77;95373.44;5131031;27;20208;-64
2023/10/14 04:12:33;;;;;;;8.52;5.95;;;;;;;-96.20;83.28;95367.56;5130214;27;20209;-66
2023/10/14 04:15:15;;;;;;;18.40;7.75;;;;;;;10.80;83.30;95366.78;5131100;27;20204;-64
2023/10/14 04:17:48;;;;;;;13.07;5.70;;;;;;;10.91;82.81;95369.81;5132130;27;20291;-64
2023/10/14 04:20:21;;;;;;;11.60;5.60;;;;;;;10.82;83.46;95359.09;5134120;27;20204;-65
2023/10/14 04:22:51;;;;;;;14.93;6.38;;;;;;;10.90;82.68;95373.22;5131356;27;20211;-63
2023/10/14 04:25:21;;;;;;;10.80;5.75;;;;;;;10.99;81.91;95368.75;5133103;27;20206;-62
2023/10/14 04:30:42;;;;;;;7.95;5.47;;;;;;;11.18;81.23;95367.31;5130473;27;20223;-64
2023/10/14 04:33:25;;;;;;;14.18;5.88;;;;;;;11.13;81.49;95366.63;5131031;27;20269;-64
2023/10/14 04:36:08;;;;;;;10.20;6.45;;;;;;;10.98;82.77;95369.63;5131801;27;20210;-63
2023/10/14 04:38:42;;;;;;;20.60;6.57;;;;;;;10.88;83.53;95364.00;5130855;27;20272;-66
2023/10/14 04:41:13;;;;;;;28.85;12.85;;;;;;;10.82;83.73;95370.09;5131711;27;20277;-65
2023/10/14 04:44:00;;;;;;;26.65;12.13;;;;;;;11.00;83.07;95371.25;5132401;27;20378;-64
2023/10/14 04:46:38;;;;;;;52.95;29.60;;;;;;;11.00;100.00;57086.72;5129635;27;20719;-65
2023/10/14 04:49:08;;;;;;;38.22;20.63;;;;;;;10.97;83.81;95373.88;5130198;27;20203;-63
2023/10/14 04:51:45;;;;;;;35.13;14.73;;;;;;;10.89;83.15;95366.47;5132298;27;20243;-64
2023/10/14 04:54:15;;;;;;;45.28;24.00;;;;;;;11.03;82.20;95372.88;5129745;27;20199;-64
2023/10/14 04:56:45;;;;;;;25.48;14.80;;;;;;;10.90;82.50;95363.06;5130383;27;20192;-62
2023/10/14 04:59:12;;;;;;;23.65;8.15;;;;;;;10.97;83.21;95367.97;5134684;27;20265;-64
2023/10/14 05:01:42;;;;;;;39.28;17.75;;;;;;;10.99;82.34;95373.84;5129214;27;20208;-63
2023/10/14 05:04:10;;;;;;;26.83;13.82;;;;;;;11.11;82.52;95371.78;5129306;27;20287;-65
2023/10/14 05:06:40;;;;;;;34.35;16.77;;;;;;;11.18;82.44;95373.22;5132491;27;20310;-65
2023/10/14 05:09:09;;;;;;;47.22;23.40;;;;;;;11.17;82.48;95369.00;5130052;27;20709;-63
2023/10/14 05:11:37;;;;;;;34.28;17.50;;;;;;;11.13;82.09;95371.72;5130134;27;20688;-66
2023/10/14 05:14:08;;;;;;;39.78;18.63;;;;;;;11.15;82.83;95372.47;5132907;27;20308;-64
2023/10/14 05:16:53;;;;;;;21.98;10.07;;;;;;;11.17;81.82;95375.81;5130091;27;20580;-64
2023/10/14 05:19:24;;;;;;;27.05;9.88;;;;;;;11.18;82.16;95378.31;5130510;27;20218;-67
2023/10/14 05:21:57;;;;;;;31.65;10.07;;;;;;;11.18;82.16;95378.31;5132561;27;20733;-65
2023/10/14 05:24:28;;;;;;;23.70;9.05;;;;;;;11.71;80.80;95380.03;5132207;27;20204;-64
2023/10/14 05:26:59;;;;;;;29.52;8.13;;;;;;;11.85;80.34;95390.66;5129599;27;20215;-60
2023/10/14 05:29:27;;;;;;;10.98;6.97;;;;;;;12.16;78.96;95391.25;5133971;27;20287;-66
2023/10/14 05:32:04;;;;;;;7.93;6.07;;;;;;;12.41;77.96;95391.22;5131662;27;21892;-65
2023/10/14 05:34:33;;;;;;;14.55;7.10;;;;;;;12.78;76.80;95395.84;5132340;27;20287;-66
2023/10/14 05:37:00;;;;;;;13.98;6.80;;;;;;;13.05;74.99;95399.09;5129993;27;20211;-66
2023/10/14 05:39:28;;;;;;;10.25;5.78;;;;;;;13.63;73.38;95391.72;5131830;27;20255;-65
2023/10/14 05:41:59;;;;;;;12.25;7.30;;;;;;;14.35;69.99;95388.75;5133867;27;20199;-65
2023/10/14 05:44:27;;;;;;;12.43;6.50;;;;;;;14.63;69.34;95386.66;5133360;27;20583;-64
2023/10/14 05:46:54;;;;;;;8.25;5.38;;;;;;;14.57;68.55;95397.19;5131379;27;20618;-65
2023/10/14 05:49:24;;;;;;;13.20;6.68;;;;;;;14.37;69.54;95395.44;5130006;27;20207;-66
2023/10/14 05:51:52;;;;;;;11.85;8.77;;;;;;;14.30;69.70;95401.72;5129237;27;20211;-65
2023/10/14 05:54:22;;;;;;;11.25;7.97;;;;;;;14.14;69.48;95409.19;5131854;27;20677;-61
2023/10/14 05:56:51;;;;;;;16.00;8.27;;;;;;;14.03;69.92;95408.84;5130797;27;20508;-66
2023/10/14 05:59:18;;;;;;;14.68;8.85;;;;;;;14.03;71.19;95410.56;5131730;27;20200;-67
2023/10/14 06:01:46;;;;;;;24.10;9.50;;;;;;;14.39;70.17;95413.28;5128090;27;20687;-65
2023/10/14 06:04:14;;;;;;;13.75;7.00;;;;;;;14.97;67.39;95401.34;5131364;27;20769;-66
2023/10/14 06:06:41;;;;;;;15.35;9.23;;;;;;;15.28;65.99;95408.47;5127374;27;20248;-65
2023/10/14 06:09:10;;;;;;;12.07;8.23;;;;;;;15.41;64.35;95409.53;5120142;27;20288;-67
2023/10/14 06:11:37;;;;;;;16.40;7.70;;;;;;;15.55;64.47;95393.53;5129432;27;20739;-64
2023/10/14 06:14:03;;;;;;;18.90;8.00;;;;;;;15.41;63.52;95391.59;5130878;27;20227;-67
2023/10/14 06:16:31;;;;;;;22.35;6.93;;;;;;;15.39;63.91;95402.81;5132288;27;20283;-65
2023/10/14 06:18:59;;;;;;;16.25;7.82;;;;;;;15.41;64.88;95399.28;5130151;27;20644;-65
2023/10/14 06:21:27;;;;;;;20.88;7.28;;;;;;;15.55;64.79;95407.16;5134100;27;20257;-62
2023/10/14 06:23:54;;;;;;;13.88;7.53;;;;;;;15.87;62.81;95404.81;5132312;27;20211;-66
2023/10/14 06:26:22;;;;;;;10.77;7.63;;;;;;;16.38;61.49;95400.56;5132268;27;20628;-65
2023/10/14 06:28:55;;;;;;;13.18;6.70;;;;;;;17.03;59.81;95398.91;5130086;27;20734;-64
2023/10/14 06:31:22;;;;;;;15.25;7.50;;;;;;;17.53;58.03;95394.41;5131820;27;20228;-66
2023/10/14 06:33:49;;;;;;;12.70;6.97;;;;;;;17.53;57.39;95394.41;5130663;27;20253;-65
2023/10/14 06:36:17;;;;;;;16.70;7.53;;;;;;;17.42;57.84;95385.63;5132030;27;20206;-65
2023/10/14 06:38:45;;;;;;;16.95;7.07;;;;;;;-4.03;58.35;107112.19;5131689;27;20220;-66
2023/10/14 06:41:13;;;;;;;13.15;7.63;;;;;;;17.05;58.84;95397.09;5128860;27;20295;-66
2023/10/14 06:43:43;;;;;;;18.13;9.10;;;;;;;17.14;59.62;95391.44;5131308;27;20230;-67
2023/10/14 06:46:11;;;;;;;16.27;8.38;;;;;;;17.52;58.19;95395.34;5129811;27;20224;-67
2023/10/14 06:48:38;;;;;;;22.92;10.90;;;;;;;17.70;57.68;95390.09;5130385;27;20208;-65
2023/10/14 06:51:06;;;;;;;21.17;10.20;;;;;;;17.62;57.10;95387.91;5133748;27;20216;-65
2023/10/14 06:53:34;;;;;;;13.57;8.60;;;;;;;17.45;58.16;95390.59;5132496;27;20191;-66
2023/10/14 06:56:01;;;;;;;14.57;7.68;;;;;;;17.29;59.18;95385.50;5128177;27;20327;-65
2023/10/14 06:58:29;;;;;;;12.05;7.70;;;;;;;17.21;59.47;95385.91;5128200;27;20649;-67
2023/10/14 07:00:59;;;;;;;14.38;7.80;;;;;;;17.11;59.93;95379.59;5130292;27;20284;-66
2023/10/14 07:03:28;;;;;;;8.35;7.47;;;;;;;17.21;59.29;95382.50;5132587;27;20218;-68
2023/10/14 07:05:58;;;;;;;12.05;7.68;;;;;;;17.43;58.78;95371.88;5129316;27;20211;-66
2023/10/14 07:08:27;;;;;;;21.23;8.23;;;;;;;17.69;57.87;95379.00;5129747;27;20752;-67
2023/10/14 07:10:55;;;;;;;15.07;9.95;;;;;;;17.70;57.97;95366.97;5127180;27;20196;-66
2023/10/14 07:13:23;;;;;;;13.57;9.10;;;;;;;17.56;57.21;95378.00;5132119;27;20704;-64
2023/10/14 07:15:51;;;;;;;19.33;9.18;;;;;;;17.45;58.28;95368.31;5134782;27;20200;-68
2023/10/14 07:18:23;;;;;;;11.63;8.88;;;;;;;17.42;58.54;95371.03;5131448;27;20558;-65
2023/10/14 07:20:57;;;;;;;26.98;8.07;;;;;;;17.44;59.03;95374.34;5131657;27;20220;-67
2023/10/14 07:23:24;;;;;;;15.95;9.15;;;;;;;17.41;58.52;95369.38;5130754;27;20203;-65
2023/10/14 07:25:52;;;;;;;22.40;8.85;;;;;;;17.41;58.89;95364.25;5129341;27;20204;-64
2023/10/14 07:28:19;;;;;;;12.02;8.13;;;;;;;17.55;58.44;95356.63;5128603;27;20217;-67
2023/10/14 07:30:48;;;;;;;20.17;9.52;;;;;;;17.64;58.55;95358.69;5129768;27;20243;-64
2023/10/14 07:33:16;;;;;;;16.63;9.82;;;;;;;17.67;58.07;95357.69;5131321;27;20236;-65
2023/10/14 07:35:46;;;;;;;27.73;9.30;;;;;;;17.83;58.02;95353.31;5132184;27;20211;-68
2023/10/14 07:38:12;;;;;;;22.90;10.25;;;;;;;18.08;57.59;95352.72;5129534;27;20211;-69
2023/10/14 07:40:39;;;;;;;16.77;9.73;;;;;;;18.34;56.71;95351.19;5130642;27;20208;-66
2023/10/14 07:43:07;;;;;;;19.95;10.02;;;;;;;18.89;54.76;95343.56;5130360;27;20195;-65
2023/10/14 07:45:36;;;;;;;17.25;9.18;;;;;;;19.51;52.78;95344.00;5133071;27;20593;-68
2023/10/14 07:48:08;;;;;;;14.68;10.20;;;;;;;19.96;51.95;95341.94;5138839;27;20625;-67
2023/10/14 07:50:36;;;;;;;22.17;9.90;;;;;;;21.78;46.97;95333.50;5135617;27;20196;-65
2023/10/14 07:53:08;;;;;;;20.40;10.23;;;;;;;21.78;46.97;95333.50;5135561;27;20228;-69
2023/10/14 07:55:36;;;;;;;14.02;10.38;;;;;;;24.39;40.12;95322.44;5136426;27;20755;-69
2023/10/14 07:58:04;;;;;;;27.35;9.63;;;;;;;24.19;40.44;95315.47;5133424;27;20196;-66
2023/10/14 08:00:37;;;;;;;18.42;9.32;;;;;;;24.13;40.69;95315.97;5136573;27;20207;-68
2023/10/14 08:03:06;;;;;;;17.25;9.18;;;;;;;24.11;40.44;95307.47;5131115;27;20210;-65
2023/10/14 08:05:35;;;;;;;12.15;8.98;;;;;;;24.05;40.83;95313.19;5129540;27;20723;-68
2023/10/14 08:08:06;;;;;;;14.65;8.70;;;;;;;24.13;40.15;95303.00;5131565;27;20268;-68
2023/10/14 08:10:35;;;;;;;15.13;11.20;;;;;;;25.68;37.57;95312.16;5133570;27;20576;-68
2023/10/14 08:13:04;;;;;;;22.02;7.93;;;;;;;26.94;34.71;95303.09;5136063;27;20295;-64
2023/10/14 08:15:31;;;;;;;18.73;9.10;;;;;;;28.41;32.62;95306.13;5133437;27;20227;-67
2023/10/14 08:18:00;;;;;;;18.23;8.98;;;;;;;30.05;29.90;95297.81;5135949;27;20232;-69
2023/10/14 08:20:28;;;;;;;15.73;8.32;;;;;;;31.10;28.14;95284.44;5132354;27;20745;-65
2023/10/14 08:22:55;;;;;;;17.48;8.98;;;;;;;31.94;26.66;95282.78;5133257;27;20264;-67
2023/10/14 08:25:25;;;;;;;17.17;8.82;;;;;;;32.69;25.32;95279.25;5133770;27;20253;-64
2023/10/14 08:27:53;;;;;;;17.40;9.02;;;;;;;32.99;25.05;95275.66;5133162;27;20220;-66
2023/10/14 08:30:24;;;;;;;19.98;9.27;;;;;;;32.70;25.14;95275.63;5131495;27;20201;-66
2023/10/14 08:32:52;;;;;;;13.65;8.65;;;;;;;31.97;25.80;95265.81;5133439;27;20248;-64
2023/10/14 08:35:20;;;;;;;13.60;8.48;;;;;;;31.68;26.41;95267.38;5134599;27;20200;-65
2023/10/14 08:37:48;;;;;;;16.20;7.78;;;;;;;31.65;26.47;95262.47;5132380;27;20209;-66
2023/10/14 08:40:21;;;;;;;21.83;9.32;;;;;;;31.32;27.26;95255.78;5131355;27;20284;-65
2023/10/14 08:42:50;;;;;;;29.08;16.55;;;;;;;31.16;26.84;95250.66;5132172;27;20278;-69
2023/10/14 08:45:25;;;;;;;9.30;7.47;;;;;;;30.70;27.28;95256.53;5132836;27;20673;-66
2023/10/14 08:47:54;;;;;;;17.42;9.07;;;;;;;30.60;28.51;95249.88;5133090;27;20243;-65
2023/10/14 08:50:24;;;;;;;20.40;10.73;;;;;;;30.26;28.73;95253.53;5135566;27;20562;-66
2023/10/14 08:52:53;;;;;;;14.68;7.80;;;;;;;29.65;28.20;95231.31;5131911;27;20249;-67
2023/10/14 08:55:20;;;;;;;16.58;7.55;;;;;;;28.64;29.51;95248.06;5131610;27;20580;-66
2023/10/14 08:57:48;;;;;;;18.63;8.32;;;;;;;28.09;31.27;95251.00;5132153;27;20685;-65
2023/10/14 09:00:20;;;;;;;16.30;7.95;;;;;;;27.81;31.56;95237.25;5133340;27;20220;-66
2023/10/14 09:02:53;;;;;;;14.38;7.78;;;;;;;27.42;32.61;95239.38;5129073;27;20207;-67
2023/10/14 09:05:19;;;;;;;14.50;7.13;;;;;;;27.21;32.63;95236.25;5133927;27;20273;-67
2023/10/14 09:07:49;;;;;;;19.75;9.55;;;;;;;27.15;32.90;95232.44;5130635;27;20324;-68
2023/10/14 09:10:18;;;;;;;12.35;7.38;;;;;;;26.63;33.32;95236.56;5130255;27;20204;-64
2023/10/14 09:12:58;;;;;;;15.35;6.95;;;;;;;26.27;34.05;95236.38;5130054;27;20204;-66
2023/10/14 09:15:29;;;;;;;15.98;6.88;;;;;;;26.22;34.88;95232.59;5133846;27;20213;-66
2023/10/14 09:17:57;;;;;;;20.02;6.68;;;;;;;26.32;34.36;95226.38;5130819;27;21284;-65
2023/10/14 09:20:32;;;;;;;11.38;5.60;;;;;;;26.32;34.37;95220.34;5130463;27;20231;-65
2023/10/14 09:23:17;;;;;;;16.83;8.63;;;;;;;26.46;34.03;95211.25;5131511;27;20745;-67
2023/10/14 09:25:46;;;;;;;11.23;6.13;;;;;;;26.58;33.48;95208.31;5133880;27;20200;-66
2023/10/14 09:28:16;;;;;;;12.50;6.93;;;;;;;26.27;33.91;95192.09;5132192;27;20227;-67
2023/10/14 09:30:46;;;;;;;10.25;5.70;;;;;;;26.36;33.79;95193.88;5129523;27;20216;-68
2023/10/14 09:33:19;;;;;;;12.77;6.68;;;;;;;26.41;34.27;95186.44;5131905;27;21860;-66
2023/10/14 09:35:48;;;;;;;19.05;6.90;;;;;;;26.27;33.48;95184.28;5132631;27;20665;-63
2023/10/14 09:38:18;;;;;;;14.57;6.75;;;;;;;25.78;34.29;95182.81;5133107;27;20202;-66
2023/10/14 09:40:50;;;;;;;14.57;5.68;;;;;;;25.94;34.90;95177.03;5132267;27;20197;-68
2023/10/14 09:43:18;;;;;;;15.95;6.03;;;;;;;26.12;33.98;95170.09;5132569;27;20204;-66
2023/10/14 09:45:47;;;;;;;8.35;5.65;;;;;;;26.18;34.07;95169.53;5132416;27;20207;-68
2023/10/14 09:48:17;;;;;;;20.48;5.57;;;;;;;26.21;33.88;95158.81;5131128;27;20220;-65
2023/10/14 09:50:45;;;;;;;11.75;5.72;;;;;;;26.22;34.19;95155.25;5130263;27;20204;-66
2023/10/14 09:53:14;;;;;;;14.57;5.55;;;;;;;26.43;34.02;95147.22;5133156;27;20204;-67
2023/10/14 09:55:42;;;;;;;10.13;5.47;;;;;;;26.49;33.88;95151.00;5131207;27;20329;-67
2023/10/14 09:58:10;;;;;;;10.13;6.25;;;;;;;26.51;34.11;95139.47;5130621;27;20211;-66
2023/10/14 10:00:37;;;;;;;11.25;5.65;;;;;;;26.53;34.29;95132.31;5132651;27;20290;-66
2023/10/14 10:03:06;;;;;;;15.07;5.75;;;;;;;26.60;34.38;95137.78;5126205;27;20192;-66
2023/10/14 10:05:40;;;;;;;7.63;4.97;;;;;;;26.72;33.77;95131.41;5132351;27;20657;-65
2023/10/14 10:08:32;;;;;;;10.15;5.07;;;;;;;26.47;33.10;95119.09;5129233;27;20251;-64
2023/10/14 10:11:01;;;;;;;8.10;5.70;;;;;;;26.00;33.74;95125.16;5129529;27;20224;-66
2023/10/14 10:13:29;;;;;;;10.35;4.72;;;;;;;25.73;34.14;95115.56;5129509;27;20226;-65
2023/10/14 10:16:04;;;;;;;11.43;4.57;;;;;;;25.83;34.82;95101.69;5131558;27;20241;-64
2023/10/14 10:18:57;;;;;;;8.52;4.75;;;;;;;25.89;34.60;95101.13;5127157;27;20224;-64
2023/10/14 10:21:29;;;;;;;12.00;4.93;;;;;;;26.02;34.73;95097.19;5128945;27;20620;-66
2023/10/14 10:24:17;;;;;;;8.02;4.20;;;;;;;26.01;33.71;95090.34;5132130;27;20242;-63
2023/10/14 10:27:08;;;;;;;8.43;4.50;;;;;;;26.02;34.53;95093.78;5129936;27;20240;-65
2023/10/14 10:29:43;;;;;;;8.20;4.65;;;;;;;25.97;34.01;95083.81;5133215;27;20283;-65
2023/10/14 10:32:12;;;;;;;18.60;4.75;;;;;;;25.73;34.48;95081.72;5130961;27;20344;-64
2023/10/14 10:35:14;;;;;;;10.65;4.38;;;;;;;25.88;34.68;95071.66;5128025;27;20643;-65
2023/10/14 10:37:52;;;;;;;10.20;4.28;;;;;;;25.92;34.34;95060.00;5130876;27;20199;-64
2023/10/14 10:40:25;;;;;;;7.68;3.60;;;;;;;25.77;33.75;95057.03;5132032;27;20688;-65
2023/10/14 10:42:54;;;;;;;5.32;3.30;;;;;;;25.63;33.72;95052.31;5128930;27;20223;-63
2023/10/14 10:45:22;;;;;;;11.25;3.15;;;;;;;25.33;34.24;95048.13;5134758;27;20206;-67
2023/10/14 10:47:54;;;;;;;10.18;3.72;;;;;;;25.29;34.67;95041.56;5128554;27;20726;-63
2023/10/14 10:50:22;;;;;;;6.70;3.95;;;;;;;25.35;34.63;95041.00;5131718;27;20196;-65
2023/10/14 10:53:20;;;;;;;11.80;3.03;;;;;;;25.47;33.17;95033.84;5127180;27;20585;-66
2023/10/14 10:55:49;;;;;;;10.32;3.35;;;;;;;25.65;33.32;95033.94;5121035;27;20224;-66
2023/10/14 10:58:20;;;;;;;38.42;5.05;;;;;;;25.82;33.70;95027.13;5128932;27;20661;-65
2023/10/14 11:00:48;;;;;;;7.13;5.50;;;;;;;26.04;33.67;95021.53;5133640;27;20300;-65
2023/10/14 11:03:16;;;;;;;7.40;5.47;;;;;;;26.21;33.48;95018.16;5128653;27;20200;-66
2023/10/14 11:05:44;;;;;;;10.30;5.30;;;;;;;26.31;32.57;95002.47;5128875;27;20224;-66
2023/10/14 11:08:14;;;;;;;12.43;3.70;;;;;;;26.30;32.37;95009.47;5127984;27;20267;-64
2023/10/14 11:10:43;;;;;;;6.68;3.90;;;;;;;26.24;31.84;95002.19;5130005;27;20204;-65
2023/10/14 11:13:12;;;;;;;32.42;23.85;;;;;;;26.25;32.61;95000.41;5126330;27;20199;-66
2023/10/14 11:15:39;;;;;;;18.58;14.88;;;;;;;26.29;32.16;94993.94;5129568;27;20196;-65
2023/10/14 11:18:08;;;;;;;15.98;9.18;;;;;;;26.36;32.47;94995.84;5133102;27;20206;-65
2023/10/14 11:20:38;;;;;;;8.18;3.67;;;;;;;26.46;32.07;94987.16;5131630;27;20211;-66
2023/10/14 11:23:08;;;;;;;23.20;15.73;;;;;;;26.37;32.69;94992.28;5138411;27;20239;-66
2023/10/14 11:25:37;;;;;;;9.30;5.60;;;;;;;26.45;32.54;94982.91;5135090;27;20192;-66
2023/10/14 11:28:06;;;;;;;5.35;3.08;;;;;;;26.21;31.54;94981.69;5135316;27;20221;-66
2023/10/14 11:30:33;;;;;;;7.93;3.30;;;;;;;25.85;32.63;94975.59;5133237;27;20224;-66
2023/10/14 11:33:02;;;;;;;6.32;3.25;;;;;;;25.73;32.84;94972.41;5131640;27;20200;-66
2023/10/14 11:35:29;;;;;;;7.22;3.38;;;;;;;25.51;32.88;94967.53;5135034;27;20196;-66
2023/10/14 11:38:00;;;;;;;6.50;3.20;;;;;;;25.35;33.56;94969.94;5130531;27;20206;-65
2023/10/14 11:40:33;;;;;;;5.47;3.38;;;;;;;25.36;33.60;94964.59;5132126;27;20212;-65
2023/10/14 11:43:00;;;;;;;10.10;3.47;;;;;;;25.40;34.16;94968.56;5131657;27;20235;-65
2023/10/14 11:45:28;;;;;;;7.97;3.45;;;;;;;25.56;34.08;94952.31;5133750;27;21395;-65